Time;durP1;ratioP1;P1;durP2;ratioP2;P2;SDS_P1;SDS_P2;PMS_P1;PMS_P2;Temp;Humidity;BMP_temperature;BMP_pressure;BME280_temperature;BME280_humidity;BME280_pressure;Samples;Min_cycle;Max_cycle;Signal;HPM_P1;HPM_P2
2021/06/28 00:01:05;;;;;;;8.63;6.53;;;;;;;19.62;72.41;100693.53;5104768;27;20031;-52
2021/06/28 00:03:31;;;;;;;7.70;6.85;;;;;;;19.60;72.67;100695.41;5070004;28;20446;-49
2021/06/28 00:05:57;;;;;;;9.40;6.70;;;;;;;19.46;73.82;100683.56;5096636;27;20123;-52
2021/06/28 00:08:23;;;;;;;7.88;6.60;;;;;;;19.33;74.40;100687.69;5082460;27;20039;-48
2021/06/28 00:10:48;;;;;;;8.05;6.82;;;;;;;19.32;73.11;100686.78;5098636;27;20032;-50
2021/06/28 00:13:14;;;;;;;8.10;6.85;;;;;;;19.31;73.38;100678.91;5113415;27;20122;-51
2021/06/28 00:15:40;;;;;;;7.93;6.80;;;;;;;19.27;73.96;100683.47;5082613;27;20035;-49
2021/06/28 00:18:07;;;;;;;7.65;6.70;;;;;;;19.18;73.33;100687.34;5098895;28;20384;-49
2021/06/28 00:20:34;;;;;;;8.38;7.28;;;;;;;19.20;73.50;100693.47;5098311;27;20036;-51
2021/06/28 00:23:01;;;;;;;9.40;7.07;;;;;;;19.24;73.97;100694.19;5100867;27;20027;-49
2021/06/28 00:25:28;;;;;;;8.57;7.67;;;;;;;19.12;74.84;100684.09;5097999;28;20643;-51
2021/06/28 00:27:54;;;;;;;8.55;7.40;;;;;;;19.09;74.75;100684.22;5100550;27;20496;-48
2021/06/28 00:30:21;;;;;;;7.47;6.55;;;;;;;19.23;73.15;100687.16;5100105;27;20043;-50
2021/06/28 00:32:48;;;;;;;8.05;6.72;;;;;;;19.34;72.35;100679.66;5098296;28;20126;-51
2021/06/28 00:35:14;;;;;;;8.00;7.13;;;;;;;19.38;71.33;100681.25;5100427;27;20501;-49
2021/06/28 00:37:41;;;;;;;8.00;7.20;;;;;;;19.26;72.26;100673.81;5099825;27;20032;-47
2021/06/28 00:40:09;;;;;;;8.95;7.03;;;;;;;19.61;70.56;100674.13;5080197;28;20507;-49
2021/06/28 00:42:35;;;;;;;;;;;;;;;19.79;69.98;100674.28;5112968;27;20036;-49
2021/06/28 00:45:14;;;;;;;7.75;6.70;;;;;;;19.72;71.90;100674.53;5099198;27;19983;-48
2021/06/28 00:47:39;;;;;;;10.18;7.13;;;;;;;19.84;71.03;100667.88;5097693;27;20052;-49
2021/06/28 00:50:05;;;;;;;7.65;6.65;;;;;;;19.37;73.28;100666.28;5100162;28;20038;-51
2021/06/28 00:52:31;;;;;;;9.18;7.25;;;;;;;19.27;74.22;100662.25;5097813;27;20088;-52
2021/06/28 00:54:57;;;;;;;7.97;7.18;;;;;;;19.16;73.19;100662.72;5097538;27;20031;-48
2021/06/28 00:57:23;;;;;;;8.60;7.15;;;;;;;19.20;72.72;100664.31;5081314;28;20051;-49
2021/06/28 00:59:50;;;;;;;7.93;7.13;;;;;;;19.37;71.99;100663.63;5098472;28;20027;-50
2021/06/28 01:02:16;;;;;;;9.82;7.70;;;;;;;19.48;71.09;100675.56;5098977;28;20023;-48
2021/06/28 01:04:41;;;;;;;8.82;7.40;;;;;;;19.32;73.54;100668.25;5099204;28;20046;-48
2021/06/28 01:07:07;;;;;;;9.50;6.93;;;;;;;19.10;73.16;100660.31;5099270;28;20118;-48
2021/06/28 01:09:33;;;;;;;9.05;7.43;;;;;;;19.15;73.23;100676.00;5098657;28;20492;-50
2021/06/28 01:11:58;;;;;;;9.57;7.60;;;;;;;18.84;75.91;100664.84;5099251;27;20031;-51
2021/06/28 01:14:24;;;;;;;8.60;7.70;;;;;;;18.74;75.57;100665.25;5098913;28;20067;-48
2021/06/28 01:16:51;;;;;;;8.77;7.15;;;;;;;18.64;76.33;100657.66;5082221;28;20590;-50
2021/06/28 01:19:22;;;;;;;10.65;7.57;;;;;;;18.53;76.65;100660.72;5098540;27;20632;-53
2021/06/28 01:21:51;;;;;;;9.05;7.45;;;;;;;18.29;78.30;100662.50;5079176;28;20112;-48
2021/06/28 01:24:17;;;;;;;8.63;7.53;;;;;;;18.17;78.97;100657.66;5098875;27;20039;-49
2021/06/28 01:26:43;;;;;;;9.18;7.55;;;;;;;18.18;78.73;100662.03;5110682;27;20473;-47
2021/06/28 01:29:09;;;;;;;8.52;7.45;;;;;;;18.30;77.38;100666.84;5099280;28;20035;-50
2021/06/28 01:31:37;;;;;;;8.32;7.40;;;;;;;18.63;75.68;100663.88;5098775;27;20046;-48
2021/06/28 01:34:03;;;;;;;8.80;7.90;;;;;;;18.75;75.00;100669.59;5078754;28;20389;-50
2021/06/28 01:36:43;;;;;;;9.82;7.80;;;;;;;18.62;75.41;100669.22;5099736;27;20035;-50
2021/06/28 01:39:09;;;;;;;9.43;8.43;;;;;;;18.29;78.49;100658.97;5098945;28;20052;-48
2021/06/28 01:41:34;;;;;;;9.73;8.15;;;;;;;18.10;78.73;100661.47;5097506;28;20066;-48
2021/06/28 01:44:00;;;;;;;8.68;7.35;;;;;;;18.45;76.18;100659.28;5098734;28;20638;-48
2021/06/28 01:46:26;;;;;;;8.73;7.75;;;;;;;18.55;75.81;100658.88;5098288;28;20838;-49
2021/06/28 01:48:51;;;;;;;9.50;8.07;;;;;;;18.26;77.92;100657.31;5110939;27;20074;-48
2021/06/28 01:51:17;;;;;;;9.30;7.85;;;;;;;18.07;78.63;100662.44;5092452;28;20073;-48
2021/06/28 01:53:44;;;;;;;9.85;7.95;;;;;;;18.08;78.74;100668.56;5097576;28;20118;-48
2021/06/28 01:56:11;;;;;;;10.38;7.97;;;;;;;18.34;77.49;100671.13;5098100;28;20028;-49
2021/06/28 01:58:36;;;;;;;8.98;8.05;;;;;;;18.04;79.18;100668.69;5098342;28;20050;-49
2021/06/28 02:01:04;;;;;;;10.20;9.13;;;;;;;17.97;79.94;100672.47;5098826;28;20539;-50
2021/06/28 02:03:36;;;;;;;8.68;7.72;;;;;;;18.12;78.08;100680.78;5097585;28;20092;-48
2021/06/28 02:06:01;;;;;;;9.25;7.82;;;;;;;18.27;77.05;100679.34;5077487;28;20045;-50
2021/06/28 02:08:29;;;;;;;11.00;8.48;;;;;;;17.98;78.68;100682.13;5102957;27;20331;-49
2021/06/28 02:10:58;;;;;;;10.55;7.85;;;;;;;17.90;79.55;100686.78;5103673;28;20043;-51
2021/06/28 02:13:28;;;;;;;9.25;8.10;;;;;;;17.78;80.44;100689.88;5084813;28;20044;-49
2021/06/28 02:15:54;;;;;;;8.90;7.90;;;;;;;17.72;80.68;100685.63;5105514;27;20031;-47
2021/06/28 02:18:24;;;;;;;10.82;8.20;;;;;;;17.60;81.31;100688.69;5105098;27;20111;-48
2021/06/28 02:20:54;;;;;;;9.57;8.38;;;;;;;17.46;82.31;100681.22;5106045;27;20046;-48
2021/06/28 02:23:20;;;;;;;9.45;8.43;;;;;;;17.35;82.89;100679.81;5103719;27;20066;-47
2021/06/28 02:25:47;;;;;;;9.38;8.02;;;;;;;17.63;80.21;100673.59;5106949;27;20071;-52
2021/06/28 02:28:13;;;;;;;8.77;7.65;;;;;;;17.57;80.54;100680.88;5105406;27;20036;-49
2021/06/28 02:30:39;;;;;;;9.00;7.70;;;;;;;18.10;76.89;100680.84;5103667;27;20036;-51
2021/06/28 02:33:04;;;;;;;9.45;8.43;;;;;;;18.00;78.63;100676.78;5086007;28;20207;-48
2021/06/28 02:35:30;;;;;;;10.32;8.00;;;;;;;17.63;79.79;100680.69;5105258;28;20643;-51
2021/06/28 02:37:56;;;;;;;9.35;7.85;;;;;;;17.77;79.30;100680.22;5105567;27;20080;-50
2021/06/28 02:40:21;;;;;;;9.63;8.35;;;;;;;17.71;80.08;100676.00;5104284;27;20036;-50
2021/06/28 02:43:08;;;;;;;9.68;8.38;;;;;;;17.55;80.47;100666.84;5034332;27;20061;-48
2021/06/28 02:45:41;;;;;;;9.27;8.23;;;;;;;17.61;79.87;100664.88;5104205;28;20031;-49
2021/06/28 02:48:07;;;;;;;9.63;8.50;;;;;;;17.53;80.73;100656.34;5103872;27;20042;-51
2021/06/28 02:50:33;;;;;;;10.00;8.13;;;;;;;17.47;80.63;100654.78;5091007;28;20556;-50
2021/06/28 02:52:58;;;;;;;9.38;7.97;;;;;;;17.31;81.94;100656.19;5107505;27;20135;-49
2021/06/28 02:55:24;;;;;;;10.80;8.77;;;;;;;17.20;82.56;100653.91;5102203;27;20131;-49
2021/06/28 02:57:51;;;;;;;11.30;8.70;;;;;;;17.14;82.05;100641.75;5103690;27;20027;-50
2021/06/28 03:00:17;;;;;;;11.43;8.32;;;;;;;17.15;82.37;100639.97;5087271;27;20124;-48
2021/06/28 03:02:58;;;;;;;9.63;8.15;;;;;;;17.17;81.61;100644.28;5137535;27;20553;-51
2021/06/28 03:05:33;;;;;;;8.70;7.80;;;;;;;17.66;78.68;100646.19;5141468;27;20211;-50
2021/06/28 03:08:08;;;;;;;9.65;8.05;;;;;;;17.32;80.23;100647.31;5151464;27;20478;-50
2021/06/28 03:10:43;;;;;;;10.73;8.45;;;;;;;17.00;82.75;100642.19;5158341;27;20611;-47
2021/06/28 03:13:18;;;;;;;9.30;7.78;;;;;;;17.10;80.93;100655.97;5132913;27;20187;-49
2021/06/28 03:15:53;;;;;;;9.23;7.55;;;;;;;17.17;80.30;100659.28;5136630;27;20127;-52
2021/06/28 03:18:28;;;;;;;8.73;7.82;;;;;;;17.26;79.92;100664.25;5144117;27;20590;-53
2021/06/28 03:21:07;;;;;;;10.85;8.57;;;;;;;17.27;80.71;100668.63;5137204;27;20132;-53
2021/06/28 03:23:44;;;;;;;10.30;8.85;;;;;;;17.40;79.62;100670.88;5153768;27;20131;-49
2021/06/28 03:26:21;;;;;;;10.70;8.82;;;;;;;17.23;80.77;100663.50;5150347;27;20585;-50
2021/06/28 03:28:57;;;;;;;11.40;8.60;;;;;;;17.20;80.89;100664.47;5167477;27;20121;-46
2021/06/28 03:31:33;;;;;;;9.07;8.00;;;;;;;17.06;81.36;100666.66;5107341;27;20724;-47
2021/06/28 03:34:07;;;;;;;11.20;8.68;;;;;;;17.13;80.90;100668.22;5138139;27;20131;-47
2021/06/28 03:36:42;;;;;;;10.25;8.50;;;;;;;16.88;82.66;100655.75;5130966;27;20518;-51
2021/06/28 03:39:18;;;;;;;9.40;8.10;;;;;;;17.23;80.22;100664.34;5139967;27;20825;-49
2021/06/28 03:41:52;;;;;;;10.15;8.68;;;;;;;16.98;81.90;100662.50;5138730;27;20180;-46
2021/06/28 03:44:27;;;;;;;8.80;7.47;;;;;;;17.18;80.10;100661.88;5158373;27;20124;-47
2021/06/28 03:47:03;;;;;;;10.68;9.07;;;;;;;17.06;81.18;100667.53;5151504;27;20564;-51
2021/06/28 03:49:39;;;;;;;9.30;8.40;;;;;;;16.79;82.67;100671.88;5165481;27;20130;-50
2021/06/28 03:52:17;;;;;;;11.10;8.63;;;;;;;16.56;84.48;100662.88;5114454;27;20585;-53
2021/06/28 03:54:52;;;;;;;10.35;8.60;;;;;;;16.64;83.16;100671.44;5120982;27;20127;-51
2021/06/28 03:57:27;;;;;;;10.40;9.25;;;;;;;16.72;83.29;100672.97;5133519;27;20139;-49
2021/06/28 04:00:07;;;;;;;9.55;7.97;;;;;;;16.59;83.81;100667.19;5145189;27;20126;-49
2021/06/28 04:02:44;;;;;;;11.88;8.70;;;;;;;16.57;83.55;100664.59;5133029;27;20207;-48
2021/06/28 04:05:22;;;;;;;12.48;8.23;;;;;;;16.68;82.43;100669.53;5145738;27;21379;-49
2021/06/28 04:07:57;;;;;;;11.32;9.20;;;;;;;16.69;83.04;100671.28;5167527;27;20575;-48
2021/06/28 04:10:32;;;;;;;9.52;8.13;;;;;;;16.64;83.39;100682.00;5127218;27;20191;-51
2021/06/28 04:13:07;;;;;;;11.88;9.45;;;;;;;16.60;84.22;100682.09;5115315;27;20139;-49
2021/06/28 04:15:42;;;;;;;9.80;8.68;;;;;;;16.59;83.96;100689.16;5123351;27;20617;-46
2021/06/28 04:18:17;;;;;;;10.65;9.10;;;;;;;16.73;83.08;100691.41;5152112;27;20182;-51
2021/06/28 04:20:55;;;;;;;11.50;8.65;;;;;;;16.65;83.67;100686.34;5142243;27;20596;-50
2021/06/28 04:23:30;;;;;;;9.82;8.32;;;;;;;16.88;82.07;100684.78;5142704;27;20215;-53
2021/06/28 04:26:05;;;;;;;11.55;9.35;;;;;;;16.90;83.29;100684.78;5153186;27;20577;-50
2021/06/28 04:28:40;;;;;;;11.10;9.02;;;;;;;16.77;83.70;100694.81;5149112;27;20165;-49
2021/06/28 04:31:15;;;;;;;11.88;9.90;;;;;;;16.78;84.07;100681.56;5129274;27;20222;-49
2021/06/28 04:33:52;;;;;;;10.43;9.00;;;;;;;16.90;83.04;100684.78;5138591;27;20175;-46
2021/06/28 04:36:27;;;;;;;9.57;8.07;;;;;;;16.91;82.47;100690.00;5113819;27;20164;-50
2021/06/28 04:39:03;;;;;;;9.88;8.20;;;;;;;17.19;80.18;100683.84;5135002;27;20136;-49
2021/06/28 04:41:38;;;;;;;9.25;8.25;;;;;;;17.36;80.44;100681.53;5138123;27;20515;-50
2021/06/28 04:44:13;;;;;;;9.60;8.35;;;;;;;17.21;81.22;100681.16;5142875;27;20126;-50
2021/06/28 04:46:48;;;;;;;10.27;7.75;;;;;;;17.22;80.96;100683.75;5158871;27;20121;-49
2021/06/28 04:49:24;;;;;;;9.90;8.20;;;;;;;17.23;80.04;100688.13;5105794;27;20136;-53
2021/06/28 04:52:00;;;;;;;10.00;8.23;;;;;;;17.15;81.98;100677.78;5096542;27;20132;-52
2021/06/28 04:54:35;;;;;;;9.90;8.55;;;;;;;17.17;81.66;100681.28;5149669;27;20138;-49
2021/06/28 04:57:13;;;;;;;9.50;8.50;;;;;;;17.13;81.85;100678.78;5140686;27;20126;-53
2021/06/28 04:59:48;;;;;;;10.10;9.00;;;;;;;17.11;83.19;100677.97;5134224;27;20131;-51
2021/06/28 05:02:23;;;;;;;10.45;8.43;;;;;;;17.15;82.61;100676.94;5135421;27;20132;-49
2021/06/28 05:04:58;;;;;;;9.77;8.77;;;;;;;17.16;83.01;100673.41;5150014;27;20554;-52
2021/06/28 05:07:36;;;;;;;11.32;8.60;;;;;;;17.10;83.02;100663.00;5110256;27;20601;-54
2021/06/28 05:10:15;;;;;;;10.93;8.48;;;;;;;17.28;81.22;100662.44;5160808;27;20755;-51
2021/06/28 05:12:50;;;;;;;12.88;11.32;;;;;;;17.36;81.49;100665.69;5116103;27;20393;-52
2021/06/28 05:15:26;;;;;;;10.43;9.18;;;;;;;17.50;79.69;100662.59;5126254;27;20626;-49
2021/06/28 05:18:01;;;;;;;8.80;7.78;;;;;;;17.68;77.59;100661.09;5137090;27;20193;-50
2021/06/28 05:20:36;;;;;;;9.45;8.45;;;;;;;17.74;78.12;100651.25;5137145;27;20128;-49
2021/06/28 05:23:12;;;;;;;9.77;8.50;;;;;;;17.65;79.78;100645.34;5157453;27;20129;-49
2021/06/28 05:25:49;;;;;;;10.85;9.02;;;;;;;17.56;82.11;100645.66;5141904;27;20231;-53
2021/06/28 05:28:24;;;;;;;9.90;8.80;;;;;;;17.57;82.17;100641.22;5117161;27;20124;-51
2021/06/28 05:31:00;;;;;;;10.70;9.20;;;;;;;17.59;82.57;100639.41;5133279;27;20139;-51
2021/06/28 05:33:36;;;;;;;9.82;8.82;;;;;;;17.70;79.58;100646.03;5121968;27;20128;-53
2021/06/28 05:36:11;;;;;;;10.82;8.98;;;;;;;17.66;82.11;100639.13;5133361;27;20132;-49
2021/06/28 05:38:46;;;;;;;11.30;9.85;;;;;;;17.70;82.70;100643.38;5138768;27;20196;-50
2021/06/28 05:41:21;;;;;;;10.60;9.50;;;;;;;17.72;83.26;100635.41;5159975;27;20138;-52
2021/06/28 05:43:56;;;;;;;11.02;9.45;;;;;;;17.75;82.96;100639.72;5146911;27;20126;-51
2021/06/28 05:46:33;;;;;;;11.30;10.10;;;;;;;17.86;82.44;100637.56;5122652;27;20144;-54
2021/06/28 05:49:08;;;;;;;9.73;8.75;;;;;;;17.96;78.91;100632.88;5093172;27;20192;-54
2021/06/28 05:51:44;;;;;;;12.10;10.40;;;;;;;18.01;81.42;100636.19;5120212;27;20136;-49
2021/06/28 05:54:19;;;;;;;11.18;9.77;;;;;;;18.03;81.65;100634.38;5117684;27;20558;-55
2021/06/28 05:56:54;;;;;;;11.32;9.70;;;;;;;18.09;80.23;100638.56;5156350;27;20130;-49
2021/06/28 05:59:29;;;;;;;11.90;9.77;;;;;;;18.20;78.65;100631.09;5139180;27;20143;-49
2021/06/28 06:02:05;;;;;;;12.35;10.85;;;;;;;18.34;77.14;100644.66;5161764;27;20593;-53
2021/06/28 06:04:42;;;;;;;12.02;10.18;;;;;;;18.47;77.68;100652.13;5154011;27;20204;-51
2021/06/28 06:07:17;;;;;;;12.07;10.10;;;;;;;18.62;78.38;100648.94;5121951;27;20123;-49
2021/06/28 06:09:52;;;;;;;12.68;11.38;;;;;;;18.68;77.02;100653.97;5116675;27;20139;-53
2021/06/28 06:12:27;;;;;;;12.02;10.00;;;;;;;18.69;76.26;100654.81;5128068;27;20579;-47
2021/06/28 06:15:08;;;;;;;11.15;9.95;;;;;;;18.80;73.61;100662.34;5138525;27;20206;-52
2021/06/28 06:17:47;;;;;;;11.48;10.35;;;;;;;18.88;75.49;100660.31;5148248;27;20139;-49
2021/06/28 06:20:22;;;;;;;11.25;10.02;;;;;;;18.98;78.01;100664.31;5147072;27;20187;-50
2021/06/28 06:22:57;;;;;;;9.48;8.48;;;;;;;18.97;75.62;100670.53;5147768;27;20186;-50
2021/06/28 06:25:32;;;;;;;11.80;10.60;;;;;;;19.41;76.22;100667.00;5115309;27;20120;-52
2021/06/28 06:28:07;;;;;;;10.93;9.82;;;;;;;19.52;74.19;100672.72;5117971;27;20131;-51
2021/06/28 06:30:42;;;;;;;11.82;10.25;;;;;;;19.64;73.38;100671.34;5128282;27;20179;-49
2021/06/28 06:33:21;;;;;;;10.80;9.45;;;;;;;19.45;74.19;100673.03;5126582;27;20127;-52
2021/06/28 06:35:57;;;;;;;11.32;9.82;;;;;;;19.56;75.53;100665.50;5134471;27;20124;-51
2021/06/28 06:38:34;;;;;;;11.45;9.88;;;;;;;19.49;76.54;100666.69;5148214;27;20835;-51
2021/06/28 06:41:09;;;;;;;10.88;9.80;;;;;;;19.55;75.22;100662.00;5148582;27;20126;-48
2021/06/28 06:43:45;;;;;;;13.98;10.70;;;;;;;19.50;73.07;100655.16;5163110;27;20565;-54
2021/06/28 06:46:20;;;;;;;11.35;10.20;;;;;;;19.71;73.99;100662.19;5118620;27;20175;-47
2021/06/28 06:48:57;;;;;;;11.50;10.32;;;;;;;19.65;76.03;100657.16;5129487;27;20639;-51
2021/06/28 06:51:33;;;;;;;11.02;9.93;;;;;;;19.90;75.95;100661.44;5128701;27;20144;-51
2021/06/28 06:54:10;;;;;;;11.45;10.15;;;;;;;19.97;75.08;100662.88;5138341;27;20588;-52
2021/06/28 06:56:45;;;;;;;11.70;9.88;;;;;;;20.65;71.00;100659.81;5151852;27;20122;-50
2021/06/28 06:59:21;;;;;;;11.85;9.85;;;;;;;20.52;70.32;100648.03;5159469;27;20195;-51
2021/06/28 07:01:56;;;;;;;10.45;9.45;;;;;;;20.40;70.71;100647.66;5150338;27;20122;-50
2021/06/28 07:04:32;;;;;;;10.25;9.25;;;;;;;20.31;73.57;100656.09;5094533;27;20145;-50
2021/06/28 07:07:09;;;;;;;11.00;9.90;;;;;;;20.45;71.80;100641.28;5132721;27;20716;-50
2021/06/28 07:09:46;;;;;;;11.32;9.30;;;;;;;20.58;71.93;100637.13;5123601;27;20132;-53
2021/06/28 07:12:21;;;;;;;11.93;10.07;;;;;;;20.97;70.77;100638.00;5150503;27;20137;-48
2021/06/28 07:14:56;;;;;;;10.52;9.38;;;;;;;20.70;69.51;100641.91;5136198;27;20567;-50
2021/06/28 07:17:31;;;;;;;10.10;9.10;;;;;;;20.71;70.34;100651.59;5142750;27;20139;-49
2021/06/28 07:20:08;;;;;;;11.02;9.57;;;;;;;20.53;70.11;100645.34;5144493;27;20113;-47
2021/06/28 07:22:43;;;;;;;10.05;9.05;;;;;;;20.81;70.32;100648.47;5164467;27;20543;-50
2021/06/28 07:25:19;;;;;;;10.20;9.02;;;;;;;20.80;70.19;100657.41;5106537;27;20173;-48
2021/06/28 07:27:55;;;;;;;10.90;9.80;;;;;;;21.01;69.48;100661.69;5104340;27;20570;-49
2021/06/28 07:30:31;;;;;;;10.32;9.23;;;;;;;20.84;69.35;100654.53;5124024;27;20131;-53
2021/06/28 07:33:06;;;;;;;10.50;8.70;;;;;;;20.82;69.20;100660.84;5146375;27;20654;-51
2021/06/28 07:35:41;;;;;;;10.48;9.45;;;;;;;20.85;68.93;100656.25;5133050;27;20125;-54
2021/06/28 07:38:18;;;;;;;10.15;9.10;;;;;;;20.69;69.59;100653.44;5150514;27;21129;-49
2021/06/28 07:40:54;;;;;;;10.82;9.10;;;;;;;20.70;69.57;100660.50;5146522;27;20130;-50
2021/06/28 07:43:29;;;;;;;10.70;9.70;;;;;;;20.75;69.19;100654.97;5070331;27;20571;-52
2021/06/28 07:46:05;;;;;;;10.68;9.10;;;;;;;20.83;69.79;100658.09;5119985;27;20188;-50
2021/06/28 07:48:42;;;;;;;10.07;9.07;;;;;;;21.18;68.69;100657.34;5127340;27;20168;-51
2021/06/28 07:51:17;;;;;;;11.98;10.93;;;;;;;21.51;66.96;100657.44;5116422;27;20492;-51
2021/06/28 07:53:52;;;;;;;11.32;10.38;;;;;;;21.19;68.19;100665.22;5146975;27;20434;-50
2021/06/28 07:56:32;;;;;;;10.02;9.02;;;;;;;21.80;67.13;100664.91;5156390;27;20532;-49
2021/06/28 07:59:07;;;;;;;10.27;9.18;;;;;;;21.58;68.34;100666.84;5148622;27;20505;-51
2021/06/28 08:01:42;;;;;;;9.63;8.70;;;;;;;21.39;68.45;100674.00;5162972;27;20126;-51
2021/06/28 08:04:17;;;;;;;10.50;9.50;;;;;;;21.32;68.98;100670.78;5111933;27;20140;-50
2021/06/28 08:06:53;;;;;;;10.98;9.88;;;;;;;21.42;67.88;100656.13;5135859;27;20535;-48
2021/06/28 08:09:31;;;;;;;10.18;9.18;;;;;;;22.15;65.94;100644.41;5127182;27;20135;-51
2021/06/28 08:12:10;;;;;;;9.80;8.90;;;;;;;21.86;67.99;100644.19;5151055;27;20127;-51
2021/06/28 08:14:45;;;;;;;9.20;8.30;;;;;;;22.53;65.00;100643.31;5154148;27;20205;-55
2021/06/28 08:17:20;;;;;;;10.00;9.00;;;;;;;22.31;64.93;100632.97;5157473;27;20573;-51
2021/06/28 08:19:55;;;;;;;9.25;8.35;;;;;;;22.70;63.71;100635.22;5164532;27;20121;-49
2021/06/28 08:22:30;;;;;;;9.40;8.38;;;;;;;22.88;63.24;100645.81;5149274;27;20233;-51
2021/06/28 08:25:07;;;;;;;9.52;8.63;;;;;;;22.93;62.19;100641.09;5099194;27;20565;-49
2021/06/28 08:27:44;;;;;;;10.32;8.60;;;;;;;23.06;61.96;100636.75;5115074;27;20132;-49
2021/06/28 08:30:22;;;;;;;10.52;8.48;;;;;;;22.91;63.58;100629.63;5117890;27;20140;-49
2021/06/28 08:32:58;;;;;;;10.52;8.35;;;;;;;22.66;65.10;100616.84;5130700;27;20521;-51
2021/06/28 08:35:33;;;;;;;9.07;8.20;;;;;;;22.62;66.33;100600.16;5149176;27;20128;-49
2021/06/28 08:38:09;;;;;;;8.90;8.02;;;;;;;23.05;63.78;100589.75;5146785;27;20118;-50
2021/06/28 08:40:47;;;;;;;8.27;7.38;;;;;;;22.88;62.36;100573.84;5154594;27;20135;-54
2021/06/28 08:43:23;;;;;;;8.10;7.30;;;;;;;22.97;62.19;100578.66;5122507;27;20187;-55
2021/06/28 08:46:00;;;;;;;8.82;7.93;;;;;;;22.83;65.01;100591.91;5114685;27;20628;-52
2021/06/28 08:48:35;;;;;;;8.48;7.20;;;;;;;23.22;62.65;100609.22;5133072;27;20443;-50
2021/06/28 08:51:10;;;;;;;8.60;7.70;;;;;;;23.04;62.98;100619.13;5135186;27;20457;-50
2021/06/28 08:53:52;;;;;;;8.77;7.88;;;;;;;23.42;61.22;100632.91;5152932;27;20123;-52
2021/06/28 08:56:28;;;;;;;8.68;7.82;;;;;;;22.99;62.41;100639.88;5155833;27;20159;-51
2021/06/28 08:59:04;;;;;;;9.02;8.13;;;;;;;23.35;61.49;100655.56;5155672;27;20126;-51
2021/06/28 09:01:41;;;;;;;8.73;7.60;;;;;;;23.69;61.58;100650.91;5152190;27;20137;-47
2021/06/28 09:04:16;;;;;;;8.32;7.53;;;;;;;23.92;59.31;100652.19;5086530;27;20540;-50
2021/06/28 09:06:51;;;;;;;8.52;7.68;;;;;;;23.73;60.76;100652.44;5127194;27;20188;-50
2021/06/28 09:09:35;;;;;;;7.90;7.10;;;;;;;23.62;61.65;100645.09;5113255;27;20129;-48
2021/06/28 09:12:15;;;;;;;8.50;7.55;;;;;;;23.46;63.26;100644.28;5126713;27;20132;-51
2021/06/28 09:15:11;;;;;;;8.23;7.43;;;;;;;24.14;59.10;100653.56;5141960;27;20181;-48
2021/06/28 09:17:47;;;;;;;10.23;7.00;;;;;;;23.86;60.56;100643.69;5138678;27;20140;-48
2021/06/28 09:20:23;;;;;;;8.35;7.50;;;;;;;24.29;61.65;100635.72;5150022;27;20147;-50
2021/06/28 09:22:58;;;;;;;8.32;7.43;;;;;;;24.01;61.63;100626.78;5148525;27;20127;-49
2021/06/28 09:25:35;;;;;;;9.35;7.50;;;;;;;24.04;61.06;100639.91;5097101;27;20525;-53
2021/06/28 09:28:11;;;;;;;7.55;6.75;;;;;;;24.69;57.03;100632.34;5115555;27;20587;-48
2021/06/28 09:30:51;;;;;;;8.23;7.43;;;;;;;24.38;58.56;100632.47;5082790;27;20129;-48
2021/06/28 09:33:26;;;;;;;9.30;7.70;;;;;;;24.46;58.82;100638.16;5146915;27;20214;-52
2021/06/28 09:36:24;;;;;;;8.20;7.00;;;;;;;24.37;58.15;100640.56;5131351;27;20183;-49
2021/06/28 09:39:18;;;;;;;7.57;6.78;;;;;;;24.62;57.43;100645.25;5145014;27;20372;-48
2021/06/28 09:42:07;;;;;;;6.28;5.40;;;;;;;25.01;51.82;100643.63;5138029;27;20135;-51
2021/06/28 09:45:13;;;;;;;6.85;5.90;;;;;;;25.20;54.13;100645.94;5140812;27;20204;-49
2021/06/28 09:47:49;;;;;;;8.30;7.50;;;;;;;24.96;55.75;100645.72;5129475;27;20492;-50
2021/06/28 09:50:26;;;;;;;7.47;6.47;;;;;;;25.08;54.29;100642.25;5142705;27;20201;-50
2021/06/28 09:53:02;;;;;;;6.78;6.07;;;;;;;25.06;56.13;100645.97;5160305;27;20206;-51
2021/06/28 09:55:42;;;;;;;7.53;6.57;;;;;;;24.90;55.92;100659.50;5147198;27;20556;-49
2021/06/28 09:58:26;;;;;;;7.75;6.97;;;;;;;24.63;56.27;100655.84;5134598;27;20519;-49
2021/06/28 10:01:03;;;;;;;7.65;6.72;;;;;;;24.50;56.66;100656.69;5118701;27;20135;-52
2021/06/28 10:03:41;;;;;;;7.28;6.45;;;;;;;24.67;56.78;100664.50;5122882;27;20128;-48
2021/06/28 10:09:09;;;;;;;8.02;7.22;;;;;;;25.00;56.00;100665.97;5138374;27;20139;-49
2021/06/28 10:11:45;;;;;;;8.20;7.47;;;;;;;24.88;57.79;100662.28;5135634;27;20181;-51
2021/06/28 10:14:20;;;;;;;8.93;8.07;;;;;;;25.07;56.50;100653.06;5143212;27;20169;-49
2021/06/28 10:16:56;;;;;;;8.18;7.40;;;;;;;25.36;53.76;100648.47;5134850;27;20119;-50
2021/06/28 10:19:32;;;;;;;8.98;8.07;;;;;;;25.29;55.56;100644.47;5117383;27;20135;-53
2021/06/28 10:22:08;;;;;;;8.95;7.93;;;;;;;25.00;56.42;100649.91;5117735;27;20128;-50
2021/06/28 10:24:46;;;;;;;9.70;8.80;;;;;;;24.56;57.50;100645.59;5121491;27;20490;-52
2021/06/28 10:27:22;;;;;;;8.50;7.70;;;;;;;24.48;58.03;100646.13;5145805;27;20128;-53
2021/06/28 10:30:00;;;;;;;8.90;8.00;;;;;;;24.93;56.26;100653.97;5133625;27;20735;-48
2021/06/28 10:32:36;;;;;;;8.65;7.75;;;;;;;24.63;58.09;100649.63;5137744;27;20235;-50
2021/06/28 10:35:15;;;;;;;9.00;8.18;;;;;;;24.72;58.05;100638.34;5148164;27;20126;-54
2021/06/28 10:37:52;;;;;;;8.20;7.40;;;;;;;25.03;56.28;100639.00;5152313;27;20118;-49
2021/06/28 10:40:42;;;;;;;8.63;7.82;;;;;;;25.32;54.89;100628.19;5105891;27;20123;-51
2021/06/28 10:43:38;;;;;;;9.20;8.30;;;;;;;24.81;56.82;100629.75;5130041;27;20124;-54
2021/06/28 10:46:30;;;;;;;8.80;7.95;;;;;;;24.93;57.45;100622.72;5129644;27;20122;-51
2021/06/28 10:49:06;;;;;;;8.60;7.70;;;;;;;24.68;58.18;100618.13;5127834;27;20439;-54
2021/06/28 10:51:48;;;;;;;8.40;7.60;;;;;;;24.92;56.06;100625.50;5108560;27;20132;-50
2021/06/28 10:54:33;;;;;;;8.80;7.90;;;;;;;24.99;55.46;100632.16;5087225;28;20051;-52
2021/06/28 10:57:18;;;;;;;8.55;7.75;;;;;;;25.14;55.95;100647.22;5089012;28;20085;-52
2021/06/28 11:00:03;;;;;;;8.50;7.70;;;;;;;24.93;56.31;100643.25;5092090;28;20604;-50
2021/06/28 11:02:47;;;;;;;8.93;7.97;;;;;;;24.61;57.93;100632.84;5087632;28;20074;-50
2021/06/28 11:05:31;;;;;;;9.38;8.15;;;;;;;24.45;59.58;100628.47;5087886;28;20136;-48
2021/06/28 11:08:24;;;;;;;8.60;7.70;;;;;;;24.45;62.62;100632.94;5090108;28;20047;-52
2021/06/28 11:11:08;;;;;;;9.60;8.63;;;;;;;23.81;67.87;100633.28;5088503;28;20093;-50
2021/06/28 11:13:53;;;;;;;8.75;7.93;;;;;;;23.67;65.85;100631.44;5090168;28;20100;-53
2021/06/28 11:16:40;;;;;;;9.98;8.98;;;;;;;23.23;68.43;100626.94;5105812;27;20050;-52
2021/06/28 11:19:53;;;;;;;10.70;9.27;;;;;;;22.73;73.50;100627.06;5089198;28;20500;-51
2021/06/28 11:22:40;;;;;;;12.10;9.40;;;;;;;22.72;72.85;100629.81;5112361;27;20132;-51
2021/06/28 11:25:09;;;;;;;9.85;8.90;;;;;;;23.02;71.20;100643.22;5091977;27;20491;-52
2021/06/28 11:27:45;;;;;;;10.68;9.75;;;;;;;22.62;75.85;100645.47;5124644;27;20139;-49
2021/06/28 11:30:23;;;;;;;11.75;10.55;;;;;;;22.54;78.39;100634.38;5134240;27;20127;-51
2021/06/28 11:33:13;;;;;;;12.02;10.70;;;;;;;22.75;77.06;100617.19;5136818;27;20137;-49
2021/06/28 11:35:47;;;;;;;10.98;9.88;;;;;;;23.29;72.24;100622.13;5101474;28;20063;-51
2021/06/28 11:38:38;;;;;;;11.35;10.23;;;;;;;23.83;70.67;100620.72;5102362;28;20036;-55
2021/06/28 11:41:15;;;;;;;10.55;9.57;;;;;;;24.13;67.17;100618.00;5152436;27;20202;-53
2021/06/28 11:43:59;;;;;;;10.35;9.35;;;;;;;24.00;70.00;100613.53;5164464;27;20166;-53
2021/06/28 11:46:34;;;;;;;10.90;9.80;;;;;;;24.14;67.78;100619.69;5090544;27;20133;-53
2021/06/28 11:49:14;;;;;;;11.18;10.07;;;;;;;24.25;66.94;100610.16;5101323;27;20580;-53
2021/06/28 11:51:49;;;;;;;10.90;9.77;;;;;;;24.71;63.47;100611.72;5134460;27;20177;-52
2021/06/28 11:54:24;;;;;;;9.60;8.60;;;;;;;24.70;63.77;100604.66;5147005;27;20123;-53
2021/06/28 11:57:02;;;;;;;9.55;8.65;;;;;;;24.88;62.89;100598.13;5140157;27;20177;-53
2021/06/28 11:59:41;;;;;;;8.07;7.28;;;;;;;25.01;62.72;100603.50;5148775;27;20147;-53